Time;durP1;ratioP1;P1;durP2;ratioP2;P2;SDS_P1;SDS_P2;PMS_P1;PMS_P2;Temp;Humidity;BMP_temperature;BMP_pressure;BME280_temperature;BME280_humidity;BME280_pressure;Samples;Min_cycle;Max_cycle;Signal;HPM_P1;HPM_P2
2022/10/09 00:01:30;;;;;;;17.17;5.53;;;10.20;99.90;;;;;;4978765;28;20213;-83
2022/10/09 00:03:57;;;;;;;24.40;6.55;;;10.00;99.90;;;;;;4978248;28;20158;-87
2022/10/09 00:06:29;;;;;;;13.15;6.63;;;10.10;99.90;;;;;;4979891;28;20597;-82
2022/10/09 00:08:55;;;;;;;14.85;6.53;;;10.20;99.90;;;;;;4978873;28;20174;-85
2022/10/09 00:11:24;;;;;;;13.82;5.57;;;10.20;99.90;;;;;;4982846;28;20272;-83
2022/10/09 00:13:51;;;;;;;9.88;5.78;;;10.10;99.90;;;;;;4983411;28;20170;-81
2022/10/09 00:16:19;;;;;;;11.43;5.32;;;10.00;99.90;;;;;;4986917;28;20174;-82
2022/10/09 00:18:45;;;;;;;13.65;6.25;;;10.00;99.90;;;;;;4989032;28;20177;-82
2022/10/09 00:21:16;;;;;;;11.93;5.15;;;10.10;99.90;;;;;;4984563;28;20189;-82
2022/10/09 00:23:42;;;;;;;14.30;6.53;;;10.10;99.90;;;;;;4981364;28;20209;-81
2022/10/09 00:26:08;;;;;;;8.68;5.53;;;10.30;99.90;;;;;;4981247;28;20232;-82
2022/10/09 00:28:33;;;;;;;10.98;6.03;;;10.20;99.90;;;;;;4979174;28;20169;-82
2022/10/09 00:31:03;;;;;;;10.27;5.80;;;10.00;99.90;;;;;;4981718;28;20213;-82
2022/10/09 00:33:29;;;;;;;9.70;5.18;;;9.90;99.90;;;;;;4950111;28;20174;-81
2022/10/09 00:35:57;;;;;;;17.00;5.65;;;10.00;99.90;;;;;;4980298;28;20185;-81
2022/10/09 00:38:24;;;;;;;13.23;5.25;;;9.90;99.90;;;;;;4982573;28;20166;-80
2022/10/09 00:40:50;;;;;;;17.45;5.10;;;9.70;99.90;;;;;;4978249;28;20174;-80
2022/10/09 00:43:18;;;;;;;16.15;5.53;;;9.70;99.90;;;;;;4977510;28;20170;-86
2022/10/09 00:45:53;;;;;;;11.35;5.35;;;9.70;99.90;;;;;;4981324;28;20240;-82
2022/10/09 00:48:19;;;;;;;11.70;5.68;;;9.70;99.90;;;;;;4980576;28;20178;-84
2022/10/09 00:50:55;;;;;;;13.38;6.35;;;9.90;99.90;;;;;;4981964;28;20237;-80
2022/10/09 00:53:25;;;;;;;16.10;6.95;;;9.90;99.90;;;;;;5002976;28;20169;-81
2022/10/09 00:55:52;;;;;;;16.67;5.53;;;9.60;99.90;;;;;;4985294;28;20166;-82
2022/10/09 00:58:18;;;;;;;15.25;5.95;;;9.60;99.90;;;;;;4983418;28;20541;-80
2022/10/09 01:00:43;;;;;;;13.52;5.68;;;9.50;99.90;;;;;;4963956;28;20205;-86
2022/10/09 01:03:09;;;;;;;16.50;6.22;;;9.40;99.90;;;;;;4979689;28;20178;-85
2022/10/09 01:05:50;;;;;;;10.15;6.00;;;9.60;99.90;;;;;;4981059;28;20178;-79
2022/10/09 01:08:41;;;;;;;10.15;5.78;;;9.80;99.90;;;;;;4980588;28;20260;-81
2022/10/09 01:11:18;;;;;;;13.57;7.25;;;9.70;99.90;;;;;;4980247;28;20214;-84
2022/10/09 01:13:44;;;;;;;15.95;6.55;;;9.80;99.90;;;;;;4979421;28;20170;-81
2022/10/09 01:16:22;;;;;;;15.95;6.80;;;9.60;99.90;;;;;;4980450;28;20180;-80
2022/10/09 01:19:03;;;;;;;14.52;6.43;;;9.40;99.90;;;;;;4978164;28;20197;-81
2022/10/09 01:21:51;;;;;;;13.30;6.20;;;9.40;99.90;;;;;;4978829;28;20244;-82
2022/10/09 01:24:37;;;;;;;10.15;6.00;;;9.40;99.90;;;;;;4973658;28;20794;-80
2022/10/09 01:27:04;;;;;;;11.40;6.03;;;9.30;99.90;;;;;;4973696;28;20221;-82
2022/10/09 01:29:36;;;;;;;16.60;6.30;;;9.40;99.90;;;;;;4973506;28;20197;-80
2022/10/09 01:32:04;;;;;;;7.53;4.93;;;9.40;99.90;;;;;;4973581;28;20220;-80
2022/10/09 01:34:31;;;;;;;13.35;6.43;;;9.60;99.90;;;;;;4974764;28;20552;-81
2022/10/09 01:36:58;;;;;;;12.68;6.43;;;9.50;99.90;;;;;;4973423;28;20182;-80
2022/10/09 01:39:25;;;;;;;13.15;5.70;;;9.70;99.90;;;;;;4973843;28;20607;-82
2022/10/09 01:41:52;;;;;;;16.90;7.35;;;9.70;99.90;;;;;;4973730;28;20190;-82
2022/10/09 01:44:29;;;;;;;10.32;5.45;;;9.70;99.90;;;;;;4973984;28;20166;-79
2022/10/09 01:46:55;;;;;;;12.55;6.22;;;9.80;99.90;;;;;;4973806;28;20271;-83
2022/10/09 01:49:42;;;;;;;11.20;6.35;;;9.70;99.90;;;;;;4974216;28;20176;-81
2022/10/09 01:52:29;;;;;;;10.20;5.88;;;9.60;99.90;;;;;;4983675;28;20193;-81
2022/10/09 01:55:17;;;;;;;10.35;6.22;;;9.50;99.90;;;;;;4990560;28;20166;-81
2022/10/09 01:58:10;;;;;;;19.42;6.38;;;9.40;99.90;;;;;;4976456;28;20212;-79
2022/10/09 02:00:41;;;;;;;12.48;6.22;;;9.40;99.90;;;;;;4956944;28;20205;-82
2022/10/09 02:03:10;;;;;;;12.52;6.78;;;9.60;99.90;;;;;;4974888;28;20802;-80
2022/10/09 02:05:37;;;;;;;11.57;6.90;;;9.50;99.90;;;;;;4974656;28;20173;-82
2022/10/09 02:08:03;;;;;;;12.93;6.95;;;9.40;99.90;;;;;;4973530;28;20174;-82
2022/10/09 02:10:31;;;;;;;9.27;6.53;;;9.20;99.90;;;;;;4974441;28;20213;-81
2022/10/09 02:12:59;;;;;;;14.90;7.45;;;9.00;99.90;;;;;;4974700;28;20652;-86
2022/10/09 02:15:33;;;;;;;23.85;6.57;;;9.20;99.90;;;;;;4973336;28;20213;-80
2022/10/09 02:18:07;;;;;;;10.63;6.55;;;9.20;99.90;;;;;;4972907;28;20539;-82
2022/10/09 02:20:36;;;;;;;12.32;7.10;;;9.20;99.90;;;;;;4974124;28;20249;-81
2022/10/09 02:23:04;;;;;;;14.35;7.47;;;9.10;99.90;;;;;;4973009;28;20173;-81
2022/10/09 02:25:31;;;;;;;12.77;7.10;;;9.20;99.90;;;;;;4974403;28;20178;-82
2022/10/09 02:27:57;;;;;;;18.85;7.18;;;9.20;99.90;;;;;;4973023;28;20170;-82
2022/10/09 02:30:25;;;;;;;15.45;6.70;;;9.30;99.90;;;;;;4972961;28;20210;-82
2022/10/09 02:32:54;;;;;;;12.10;6.82;;;9.50;99.90;;;;;;4974043;28;20197;-85
2022/10/09 02:35:20;;;;;;;16.95;7.97;;;9.50;99.90;;;;;;4974403;28;20170;-82
2022/10/09 02:37:47;;;;;;;13.38;7.93;;;9.20;99.90;;;;;;4972800;28;20177;-82
2022/10/09 02:40:13;;;;;;;16.20;8.30;;;9.10;99.90;;;;;;4989171;28;20173;-82
2022/10/09 02:42:39;;;;;;;14.13;8.35;;;9.20;99.90;;;;;;4974002;28;20521;-80
2022/10/09 02:45:26;;;;;;;16.00;7.82;;;9.00;99.90;;;;;;4972805;28;20213;-81
2022/10/09 02:47:52;;;;;;;13.73;7.53;;;8.90;99.90;;;;;;4974163;28;20602;-81
2022/10/09 02:50:17;;;;;;;13.35;8.00;;;9.10;99.90;;;;;;4972737;28;20233;-79
2022/10/09 02:52:43;;;;;;;18.08;8.48;;;9.20;99.90;;;;;;4973504;28;20686;-81
2022/10/09 02:55:08;;;;;;;18.67;8.02;;;9.20;99.90;;;;;;4972425;28;20232;-81
2022/10/09 02:57:34;;;;;;;19.08;8.70;;;9.20;99.90;;;;;;4972840;28;20166;-86
2022/10/09 02:59:59;;;;;;;13.65;8.20;;;8.90;99.90;;;;;;4974025;28;20185;-87
2022/10/09 03:02:25;;;;;;;12.63;8.23;;;8.90;99.90;;;;;;4972536;28;20197;-86
2022/10/09 03:04:51;;;;;;;15.60;8.52;;;9.00;99.90;;;;;;4972744;28;20177;-84
2022/10/09 03:07:16;;;;;;;13.43;8.88;;;9.20;99.90;;;;;;4972570;28;20763;-85
2022/10/09 03:09:42;;;;;;;23.20;8.55;;;9.00;99.90;;;;;;4972196;28;20169;-86
2022/10/09 03:12:07;;;;;;;16.35;8.90;;;9.00;99.90;;;;;;4972284;28;20221;-82
2022/10/09 03:14:34;;;;;;;15.63;8.52;;;8.80;99.90;;;;;;4973288;28;20236;-79
2022/10/09 03:16:59;;;;;;;19.33;8.90;;;8.80;99.90;;;;;;4973474;28;20250;-80
2022/10/09 03:19:25;;;;;;;9.98;7.75;;;9.00;99.90;;;;;;4972314;28;20613;-79
2022/10/09 03:21:50;;;;;;;16.35;7.53;;;8.80;99.90;;;;;;4973249;28;20256;-80
2022/10/09 03:24:16;;;;;;;15.32;8.70;;;8.80;99.90;;;;;;4972493;28;20173;-80
2022/10/09 03:26:41;;;;;;;10.90;7.93;;;9.00;99.90;;;;;;4972132;28;20568;-80
2022/10/09 03:29:07;;;;;;;11.40;7.00;;;9.10;99.90;;;;;;4972059;28;20178;-82
2022/10/09 03:31:33;;;;;;;14.57;7.78;;;8.90;99.90;;;;;;4972755;28;20213;-81
2022/10/09 03:33:58;;;;;;;11.98;7.68;;;8.90;99.90;;;;;;4972985;28;20166;-81
2022/10/09 03:36:24;;;;;;;21.35;8.30;;;9.00;99.90;;;;;;4973660;28;20170;-84
2022/10/09 03:38:49;;;;;;;17.48;7.63;;;8.80;99.90;;;;;;4972503;28;20174;-85
2022/10/09 03:41:15;;;;;;;14.50;7.63;;;8.70;99.90;;;;;;4988905;28;20236;-80
2022/10/09 03:43:40;;;;;;;11.27;7.85;;;8.70;99.90;;;;;;4973475;28;20644;-84
2022/10/09 03:46:07;;;;;;;17.40;7.70;;;8.90;99.90;;;;;;4977832;28;20177;-83
2022/10/09 03:48:33;;;;;;;16.77;7.97;;;8.70;99.90;;;;;;4976208;28;20181;-85
2022/10/09 03:50:59;;;;;;;10.40;7.20;;;8.60;99.90;;;;;;4976509;28;20221;-85
2022/10/09 03:53:24;;;;;;;13.57;7.47;;;8.60;99.90;;;;;;4977669;28;20297;-81
2022/10/09 03:55:50;;;;;;;19.85;7.30;;;8.50;99.90;;;;;;4976540;28;20177;-82
2022/10/09 03:58:15;;;;;;;15.82;6.88;;;8.60;99.90;;;;;;4976596;28;20611;-85
2022/10/09 04:00:44;;;;;;;15.68;7.07;;;8.60;99.90;;;;;;4976997;28;20182;-86
2022/10/09 04:03:10;;;;;;;10.98;7.57;;;8.80;99.90;;;;;;4977254;28;20232;-81
2022/10/09 04:05:36;;;;;;;21.80;7.18;;;8.80;99.90;;;;;;4975743;28;20162;-81
2022/10/09 04:08:01;;;;;;;17.67;7.00;;;8.70;99.90;;;;;;4977050;28;20242;-85
2022/10/09 04:10:27;;;;;;;13.70;7.80;;;8.70;99.90;;;;;;4977409;28;20284;-81
2022/10/09 04:12:52;;;;;;;16.98;8.00;;;8.70;99.90;;;;;;4975614;28;20240;-81
2022/10/09 04:15:18;;;;;;;14.60;6.60;;;8.60;99.90;;;;;;4977106;28;20649;-81
2022/10/09 04:17:44;;;;;;;10.80;6.55;;;8.50;99.90;;;;;;4975844;28;20166;-80
2022/10/09 04:20:09;;;;;;;16.52;7.30;;;8.60;99.90;;;;;;4977789;28;20181;-80
2022/10/09 04:22:35;;;;;;;11.50;7.32;;;8.60;99.90;;;;;;4992584;28;20190;-81
2022/10/09 04:25:00;;;;;;;10.57;7.43;;;8.50;99.90;;;;;;4987578;28;20177;-86
2022/10/09 04:27:26;;;;;;;10.57;6.43;;;8.60;99.90;;;;;;4976890;28;20193;-85
2022/10/09 04:29:51;;;;;;;14.45;7.68;;;8.60;99.90;;;;;;4975887;28;20276;-82
2022/10/09 04:32:17;;;;;;;10.57;7.22;;;8.60;99.90;;;;;;4976019;28;20656;-82
2022/10/09 04:34:43;;;;;;;13.20;6.82;;;8.60;99.90;;;;;;4976486;28;20260;-82
2022/10/09 04:37:08;;;;;;;15.60;6.65;;;8.80;99.90;;;;;;4975501;28;20170;-81
2022/10/09 04:39:34;;;;;;;10.85;6.88;;;8.90;99.90;;;;;;4975491;28;20173;-84
2022/10/09 04:41:59;;;;;;;12.63;6.80;;;8.60;99.90;;;;;;4976812;28;20201;-85
2022/10/09 04:44:25;;;;;;;9.93;6.80;;;8.60;99.90;;;;;;4975633;28;20189;-85
2022/10/09 04:46:50;;;;;;;7.03;6.15;;;8.70;99.90;;;;;;4975493;28;20170;-85
2022/10/09 04:49:17;;;;;;;13.70;6.90;;;8.60;99.90;;;;;;4975927;28;20162;-85
2022/10/09 04:51:43;;;;;;;11.00;6.45;;;8.50;99.90;;;;;;4976266;28;20292;-81
2022/10/09 04:54:09;;;;;;;11.75;6.78;;;8.50;99.90;;;;;;4975324;28;20180;-82
2022/10/09 04:56:35;;;;;;;9.50;7.18;;;8.50;99.90;;;;;;4973393;28;20218;-86
2022/10/09 04:59:01;;;;;;;12.38;6.80;;;8.50;99.90;;;;;;4976460;28;20166;-85
2022/10/09 05:01:28;;;;;;;11.35;6.38;;;8.50;99.90;;;;;;4975236;28;20206;-87
2022/10/09 05:03:54;;;;;;;11.20;6.63;;;8.40;99.90;;;;;;4974909;28;20166;-81
2022/10/09 05:06:21;;;;;;;16.35;6.38;;;8.50;99.90;;;;;;4975020;28;20591;-80
2022/10/09 05:08:47;;;;;;;12.40;6.05;;;8.50;99.90;;;;;;4975315;28;20174;-82
2022/10/09 05:11:20;;;;;;;11.05;6.88;;;8.30;99.90;;;;;;4975992;28;20216;-84
2022/10/09 05:13:48;;;;;;;14.93;5.85;;;8.40;99.90;;;;;;4974732;28;20224;-86
2022/10/09 05:16:17;;;;;;;14.68;6.47;;;8.40;99.90;;;;;;4974765;28;20682;-81
2022/10/09 05:18:45;;;;;;;9.82;5.57;;;8.50;99.90;;;;;;4974942;28;20591;-85
2022/10/09 05:21:11;;;;;;;8.02;5.13;;;8.40;99.90;;;;;;4975634;28;20190;-81
2022/10/09 05:23:37;;;;;;;10.95;5.55;;;8.40;99.90;;;;;;4975762;28;20172;-80
2022/10/09 05:26:05;;;;;;;8.55;5.25;;;8.50;99.90;;;;;;4973712;28;20174;-80
2022/10/09 05:28:31;;;;;;;12.55;4.78;;;8.60;99.90;;;;;;4973907;28;20188;-84
2022/10/09 05:30:57;;;;;;;8.88;4.38;;;8.70;99.90;;;;;;4974085;28;20252;-81
2022/10/09 05:33:22;;;;;;;21.98;5.15;;;8.80;99.90;;;;;;4974189;28;20182;-81
2022/10/09 05:36:15;;;;;;;10.25;5.78;;;8.90;99.90;;;;;;4974376;28;20236;-82
2022/10/09 05:38:40;;;;;;;5.68;4.35;;;9.00;99.90;;;;;;4970622;28;20232;-80
2022/10/09 05:41:08;;;;;;;8.60;5.00;;;8.80;99.90;;;;;;4974129;28;20197;-80
2022/10/09 05:43:37;;;;;;;5.80;4.35;;;8.70;99.90;;;;;;4974058;28;20534;-83
2022/10/09 05:46:19;;;;;;;14.25;6.28;;;8.60;99.90;;;;;;4975324;28;20229;-86
2022/10/09 05:48:50;;;;;;;9.50;5.47;;;8.50;99.90;;;;;;4974414;28;20177;-86
2022/10/09 05:51:18;;;;;;;9.48;5.45;;;8.60;99.90;;;;;;4974242;28;20305;-82
2022/10/09 05:53:45;;;;;;;7.50;4.85;;;8.50;99.90;;;;;;4974241;28;20162;-86
2022/10/09 05:56:23;;;;;;;6.65;4.20;;;8.50;99.90;;;;;;4974118;28;20217;-81
2022/10/09 05:58:56;;;;;;;10.45;4.60;;;8.70;99.90;;;;;;4975234;28;20252;-82
2022/10/09 06:01:24;;;;;;;14.25;5.07;;;8.60;99.90;;;;;;4973852;28;20244;-84
2022/10/09 06:03:51;;;;;;;13.90;4.90;;;8.70;99.90;;;;;;4973712;28;20185;-80
2022/10/09 06:06:18;;;;;;;8.55;4.97;;;8.60;99.90;;;;;;4973605;28;20261;-83
2022/10/09 06:08:44;;;;;;;8.60;5.10;;;8.60;99.90;;;;;;4974881;28;20245;-81
2022/10/09 06:11:17;;;;;;;6.85;4.20;;;8.50;99.90;;;;;;4973304;28;20224;-85
2022/10/09 06:13:43;;;;;;;7.85;4.28;;;8.50;99.90;;;;;;4974036;28;20562;-81
2022/10/09 06:16:11;;;;;;;7.63;4.60;;;8.50;99.90;;;;;;4974969;28;20180;-81
2022/10/09 06:18:38;;;;;;;6.70;5.05;;;8.60;99.90;;;;;;4973962;28;20173;-85
2022/10/09 06:21:04;;;;;;;8.93;5.35;;;8.60;99.90;;;;;;4974114;28;20194;-85
2022/10/09 06:23:36;;;;;;;11.70;4.07;;;8.50;99.90;;;;;;4974147;28;20184;-86
2022/10/09 06:26:04;;;;;;;13.07;5.35;;;8.50;99.90;;;;;;4975506;28;20173;-83
2022/10/09 06:28:31;;;;;;;13.60;5.03;;;8.60;99.90;;;;;;4974101;28;20273;-84
2022/10/09 06:31:06;;;;;;;9.18;4.68;;;8.60;99.90;;;;;;4974223;28;20702;-83
2022/10/09 06:33:33;;;;;;;10.82;4.53;;;8.70;99.90;;;;;;4973897;28;20184;-86
2022/10/09 06:36:04;;;;;;;5.82;4.22;;;8.80;99.90;;;;;;4974698;28;20181;-86
2022/10/09 06:38:32;;;;;;;6.78;4.13;;;8.80;99.90;;;;;;4975416;28;20260;-82
2022/10/09 06:41:02;;;;;;;9.35;4.35;;;8.80;99.90;;;;;;4973382;28;20198;-84
2022/10/09 06:43:28;;;;;;;5.80;3.90;;;8.90;99.90;;;;;;4973951;28;20177;-87
2022/10/09 06:45:54;;;;;;;5.13;4.32;;;9.10;99.90;;;;;;4973378;28;20170;-81
2022/10/09 06:48:21;;;;;;;16.30;4.90;;;9.20;99.90;;;;;;4977501;28;20181;-86
2022/10/09 06:50:47;;;;;;;11.02;5.32;;;9.20;99.90;;;;;;4982369;28;20209;-85
2022/10/09 06:53:12;;;;;;;17.67;4.78;;;9.40;99.90;;;;;;4987773;28;20674;-86
2022/10/09 06:55:38;;;;;;;6.47;4.55;;;9.50;99.90;;;;;;4984779;28;20220;-87
2022/10/09 06:58:03;;;;;;;12.70;4.10;;;9.50;99.90;;;;;;4975732;28;20595;-84
2022/10/09 07:00:29;;;;;;;5.90;4.40;;;9.50;99.90;;;;;;4973643;28;20602;-87
2022/10/09 07:02:55;;;;;;;9.48;4.60;;;9.60;99.90;;;;;;4974350;28;20194;-80
2022/10/09 07:05:20;;;;;;;7.70;4.15;;;9.70;99.90;;;;;;4973379;28;20174;-80
2022/10/09 07:07:46;;;;;;;13.00;3.72;;;9.70;99.90;;;;;;4973074;28;20172;-80
2022/10/09 07:10:12;;;;;;;4.25;3.47;;;9.80;99.90;;;;;;4957035;28;20217;-85
2022/10/09 07:12:37;;;;;;;6.30;4.20;;;9.90;99.90;;;;;;4973704;28;20205;-88
2022/10/09 07:15:05;;;;;;;8.50;3.75;;;10.00;99.90;;;;;;4973264;28;20176;-81
2022/10/09 07:17:31;;;;;;;10.13;4.13;;;10.00;99.90;;;;;;4972571;28;20182;-81
2022/10/09 07:19:56;;;;;;;12.32;4.07;;;10.10;99.90;;;;;;4973485;28;20229;-87
2022/10/09 07:22:22;;;;;;;9.23;3.45;;;10.30;99.90;;;;;;4974125;28;20200;-86
2022/10/09 07:24:49;;;;;;;7.13;3.38;;;10.20;99.90;;;;;;4973706;28;20174;-84
2022/10/09 07:27:16;;;;;;;5.65;3.45;;;10.50;99.90;;;;;;4973163;28;20687;-80
2022/10/09 07:29:41;;;;;;;4.88;3.42;;;10.60;99.90;;;;;;4973450;28;20162;-86
2022/10/09 07:32:07;;;;;;;5.78;3.53;;;10.80;99.90;;;;;;4973642;28;20265;-87
2022/10/09 07:34:32;;;;;;;5.43;3.80;;;11.00;99.90;;;;;;4974054;28;20708;-87
2022/10/09 07:37:01;;;;;;;7.82;3.80;;;11.00;99.90;;;;;;4972922;28;20265;-82
2022/10/09 07:39:26;;;;;;;8.45;4.20;;;11.20;99.90;;;;;;4970886;28;20253;-85
2022/10/09 07:41:52;;;;;;;7.55;3.42;;;11.30;99.90;;;;;;4969937;28;20293;-86
2022/10/09 07:44:18;;;;;;;8.85;3.65;;;11.40;99.90;;;;;;4972131;28;20174;-82
2022/10/09 07:46:44;;;;;;;7.75;3.13;;;11.50;99.90;;;;;;4972823;28;20174;-84
2022/10/09 07:49:09;;;;;;;10.35;3.70;;;11.60;99.90;;;;;;4973106;28;20162;-86
2022/10/09 07:51:35;;;;;;;13.43;3.47;;;11.70;99.90;;;;;;4974277;28;20216;-84
2022/10/09 07:54:01;;;;;;;4.93;3.20;;;11.80;99.90;;;;;;4974071;28;20663;-81
2022/10/09 07:56:30;;;;;;;5.72;2.53;;;12.00;99.90;;;;;;4972786;28;20378;-79
2022/10/09 07:58:58;;;;;;;5.05;3.13;;;12.00;99.90;;;;;;4974262;28;20162;-86
2022/10/09 08:01:26;;;;;;;6.00;2.92;;;12.10;99.90;;;;;;4974470;28;20205;-87
2022/10/09 08:03:52;;;;;;;11.40;2.47;;;12.20;99.90;;;;;;4973280;28;20636;-87
2022/10/09 08:06:18;;;;;;;9.15;2.83;;;12.40;99.90;;;;;;4973890;28;20233;-84
2022/10/09 08:08:47;;;;;;;4.93;2.20;;;12.50;99.90;;;;;;4970676;28;20174;-79
2022/10/09 08:11:14;;;;;;;8.00;2.78;;;12.50;99.90;;;;;;4972491;28;20201;-80
2022/10/09 08:13:41;;;;;;;3.95;1.83;;;12.60;99.90;;;;;;4973364;28;20252;-87
2022/10/09 08:16:07;;;;;;;8.23;2.35;;;12.70;99.90;;;;;;4973675;28;20196;-85
2022/10/09 08:18:33;;;;;;;7.25;2.10;;;12.90;99.90;;;;;;4973154;28;20582;-87
2022/10/09 08:21:01;;;;;;;3.05;1.95;;;13.00;99.90;;;;;;4973691;28;20209;-88
2022/10/09 08:23:27;;;;;;;2.85;1.40;;;13.00;99.90;;;;;;4973216;28;20597;-83
2022/10/09 08:25:53;;;;;;;3.15;1.42;;;13.00;99.90;;;;;;4972378;28;20265;-87
2022/10/09 08:28:19;;;;;;;5.30;1.55;;;13.00;99.90;;;;;;4973388;28;20173;-85
2022/10/09 08:30:44;;;;;;;12.63;1.63;;;13.10;99.90;;;;;;4974236;28;20201;-82
2022/10/09 08:33:10;;;;;;;3.70;1.50;;;13.10;99.90;;;;;;4977120;28;20624;-84
2022/10/09 08:35:36;;;;;;;5.40;1.40;;;13.20;99.90;;;;;;4977042;28;20177;-83
2022/10/09 08:38:01;;;;;;;3.13;1.30;;;13.40;99.90;;;;;;4975873;28;20174;-87
2022/10/09 08:40:53;;;;;;;11.18;1.38;;;13.30;99.90;;;;;;4976619;28;20181;-86
2022/10/09 08:43:27;;;;;;;3.60;1.38;;;13.30;99.90;;;;;;4974885;28;20185;-87
2022/10/09 08:45:55;;;;;;;5.05;1.60;;;13.20;99.90;;;;;;4976709;28;20253;-87
2022/10/09 08:48:24;;;;;;;7.43;1.50;;;13.30;99.90;;;;;;4974514;28;20174;-88
2022/10/09 08:50:52;;;;;;;10.45;1.20;;;13.40;99.90;;;;;;4976442;28;20208;-83
2022/10/09 08:53:42;;;;;;;3.40;1.45;;;13.60;99.90;;;;;;4975605;28;20162;-85
2022/10/09 08:56:12;;;;;;;4.25;1.77;;;13.70;99.90;;;;;;4976247;28;20225;-82
2022/10/09 08:58:39;;;;;;;2.28;1.30;;;13.90;99.90;;;;;;4975577;28;20174;-81
2022/10/09 09:01:17;;;;;;;8.85;1.60;;;14.00;99.90;;;;;;4975579;28;20260;-85
2022/10/09 09:04:04;;;;;;;3.72;1.60;;;14.10;99.90;;;;;;4976364;28;20170;-82
2022/10/09 09:06:53;;;;;;;4.30;1.38;;;14.30;99.90;;;;;;4976701;28;20181;-90
2022/10/09 09:09:44;;;;;;;2.42;1.40;;;14.30;99.90;;;;;;4974908;28;20698;-84
2022/10/09 09:12:19;;;;;;;1.42;1.30;;;14.40;99.90;;;;;;4980016;28;20267;-80
2022/10/09 09:15:07;;;;;;;2.92;1.40;;;14.60;99.90;;;;;;4977607;28;20210;-86
2022/10/09 09:17:51;;;;;;;6.03;1.80;;;14.60;99.90;;;;;;4976934;28;20182;-87
2022/10/09 09:20:25;;;;;;;3.08;1.30;;;14.70;99.90;;;;;;4986544;28;20170;-81
2022/10/09 09:22:51;;;;;;;3.17;1.40;;;14.80;99.90;;;;;;4987525;28;20182;-85
2022/10/09 09:25:25;;;;;;;3.20;1.40;;;14.80;99.90;;;;;;4986844;28;20241;-89
2022/10/09 09:28:01;;;;;;;5.45;1.80;;;14.90;99.90;;;;;;4976988;28;20652;-86
2022/10/09 09:30:33;;;;;;;6.72;1.80;;;15.00;99.90;;;;;;4976941;28;20208;-85
2022/10/09 09:33:39;;;;;;;5.45;1.88;;;15.10;99.90;;;;;;4976859;28;20213;-80
2022/10/09 09:36:22;;;;;;;2.55;1.48;;;15.20;99.90;;;;;;4974570;28;20181;-83
2022/10/09 09:38:59;;;;;;;3.10;1.60;;;15.20;99.90;;;;;;4974211;28;20186;-84
2022/10/09 09:41:27;;;;;;;3.55;1.73;;;15.20;99.90;;;;;;4975108;28;20193;-86
2022/10/09 09:44:11;;;;;;;3.03;1.70;;;15.30;99.90;;;;;;4975706;28;20150;-84
2022/10/09 09:46:39;;;;;;;3.60;1.58;;;15.40;99.90;;;;;;4975020;28;20640;-85
2022/10/09 09:49:18;;;;;;;2.72;1.63;;;15.30;99.90;;;;;;4975303;28;20182;-85
2022/10/09 09:51:44;;;;;;;2.67;1.50;;;15.40;99.90;;;;;;4975839;28;20217;-81
2022/10/09 09:54:45;;;;;;;2.42;1.40;;;15.60;99.90;;;;;;4975194;28;20249;-82
2022/10/09 09:57:11;;;;;;;4.65;1.45;;;15.70;99.90;;;;;;4961893;28;20186;-84
2022/10/09 09:59:40;;;;;;;7.88;1.70;;;15.80;99.90;;;;;;4973902;28;20192;-80
2022/10/09 10:02:13;;;;;;;5.50;1.55;;;15.80;99.90;;;;;;4973694;28;20733;-83
2022/10/09 10:04:50;;;;;;;3.00;1.48;;;15.60;99.90;;;;;;4974930;28;20278;-82
2022/10/09 10:07:36;;;;;;;8.75;1.50;;;15.70;99.90;;;;;;4973577;28;20533;-83
2022/10/09 10:10:19;;;;;;;4.13;2.10;;;15.90;99.90;;;;;;4974571;28;20173;-81
2022/10/09 10:12:53;;;;;;;12.13;1.77;;;15.70;99.90;;;;;;4973626;28;20668;-86
2022/10/09 10:15:27;;;;;;;6.07;2.28;;;15.80;99.90;;;;;;4968685;28;20851;-87
2022/10/09 10:18:07;;;;;;;6.28;1.70;;;15.90;99.90;;;;;;4984337;28;20567;-81
2022/10/09 10:20:42;;;;;;;6.30;1.70;;;15.80;99.90;;;;;;4966033;28;20189;-81
2022/10/09 10:23:34;;;;;;;3.83;1.70;;;15.80;99.90;;;;;;4968285;28;20174;-86
2022/10/09 10:26:16;;;;;;;9.32;2.17;;;15.80;99.90;;;;;;4973785;28;20530;-81
2022/10/09 10:28:49;;;;;;;7.20;2.15;;;15.80;99.90;;;;;;4982642;28;20170;-82
2022/10/09 10:31:28;;;;;;;6.55;2.45;;;15.80;99.90;;;;;;4970949;28;20225;-80
2022/10/09 10:33:56;;;;;;;3.30;2.92;;;16.00;99.90;;;;;;4967445;28;20180;-81
2022/10/09 10:36:22;;;;;;;11.10;2.40;;;16.00;99.90;;;;;;4967188;28;20188;-82
2022/10/09 10:38:57;;;;;;;4.25;2.05;;;16.20;99.90;;;;;;4965926;28;20194;-83
2022/10/09 10:41:29;;;;;;;12.88;4.53;;;16.30;99.90;;;;;;4968031;28;20700;-87
2022/10/09 10:44:07;;;;;;;7.25;4.47;;;16.30;99.90;;;;;;4959317;28;20182;-82
2022/10/09 10:46:48;;;;;;;7.43;4.10;;;16.20;99.90;;;;;;4961723;28;20641;-83
2022/10/09 10:49:20;;;;;;;5.40;4.28;;;16.20;99.90;;;;;;4975140;28;20185;-80
2022/10/09 10:52:13;;;;;;;8.15;3.00;;;16.30;99.90;;;;;;4963476;28;20217;-82
2022/10/09 10:55:18;;;;;;;2.78;2.20;;;16.20;99.90;;;;;;4960091;28;20242;-84
2022/10/09 10:58:05;;;;;;;3.85;2.72;;;16.30;99.90;;;;;;4967453;28;20190;-85
2022/10/09 11:00:36;;;;;;;13.10;3.40;;;16.30;99.90;;;;;;4975917;28;20189;-82
2022/10/09 11:03:27;;;;;;;2.83;2.38;;;16.40;99.90;;;;;;4967727;28;20653;-81
2022/10/09 11:06:23;;;;;;;10.38;3.35;;;16.40;99.90;;;;;;4961926;28;20641;-82
2022/10/09 11:08:56;;;;;;;4.80;3.40;;;16.40;99.90;;;;;;4962261;28;20186;-86
2022/10/09 11:11:41;;;;;;;2.95;1.98;;;16.70;99.90;;;;;;4960160;28;20796;-83
2022/10/09 11:14:33;;;;;;;4.50;2.70;;;16.70;99.90;;;;;;4957768;28;20185;-82
2022/10/09 11:17:25;;;;;;;3.25;2.00;;;16.70;99.90;;;;;;4955211;28;20612;-81
2022/10/09 11:20:19;;;;;;;11.63;1.73;;;16.60;99.90;;;;;;4965002;28;20260;-80
2022/10/09 11:23:02;;;;;;;2.20;1.25;;;16.80;99.90;;;;;;4975613;28;20280;-82
2022/10/09 11:25:47;;;;;;;2.75;1.77;;;16.90;99.90;;;;;;4967072;28;20261;-85
2022/10/09 11:28:21;;;;;;;9.07;1.50;;;16.80;99.90;;;;;;4965131;28;20257;-81
2022/10/09 11:30:56;;;;;;;3.50;1.25;;;16.90;99.90;;;;;;4965238;28;20209;-82
2022/10/09 11:33:47;;;;;;;7.00;1.73;;;17.00;99.90;;;;;;4963536;28;20624;-80
2022/10/09 11:36:24;;;;;;;3.35;1.30;;;17.00;99.90;;;;;;4954803;28;20217;-87
2022/10/09 11:39:01;;;;;;;8.35;1.77;;;17.10;99.90;;;;;;4957735;28;20265;-81
2022/10/09 11:41:29;;;;;;;3.28;1.38;;;17.10;99.90;;;;;;4959213;28;20203;-82
2022/10/09 11:44:21;;;;;;;3.22;1.58;;;17.10;99.90;;;;;;4970128;28;20598;-83
2022/10/09 11:47:18;;;;;;;3.30;1.33;;;17.10;99.90;;;;;;4972867;28;20179;-82
2022/10/09 11:50:04;;;;;;;2.22;1.40;;;17.10;99.90;;;;;;4972313;28;20189;-82
2022/10/09 11:52:45;;;;;;;3.63;1.10;;;17.30;99.90;;;;;;4961993;28;20213;-81
2022/10/09 11:55:24;;;;;;;6.65;1.30;;;17.20;99.90;;;;;;4957412;28;20229;-83
2022/10/09 11:57:49;;;;;;;2.67;1.10;;;17.20;99.90;;;;;;4962940;28;20174;-81
2022/10/09 12:00:16;;;;;;;2.35;1.15;;;17.20;99.90;;;;;;4958712;28;20614;-82
2022/10/09 12:02:42;;;;;;;3.30;1.17;;;17.20;99.90;;;;;;4960721;28;20271;-83
2022/10/09 12:05:17;;;;;;;5.43;1.20;;;17.20;99.90;;;;;;4964502;28;20193;-81
2022/10/09 12:07:43;;;;;;;3.20;2.00;;;17.30;99.90;;;;;;4972650;28;20228;-83
2022/10/09 12:10:31;;;;;;;2.33;1.33;;;17.30;99.90;;;;;;4986338;28;20178;-81
2022/10/09 12:13:03;;;;;;;2.95;1.05;;;17.30;99.90;;;;;;4952349;28;20271;-79
2022/10/09 12:15:54;;;;;;;3.05;1.10;;;17.30;99.90;;;;;;4962083;28;20182;-77
2022/10/09 12:18:26;;;;;;;1.90;1.52;;;17.40;99.90;;;;;;4964405;28;20182;-79
2022/10/09 12:20:54;;;;;;;6.82;1.30;;;17.40;99.90;;;;;;4960563;28;20182;-78
2022/10/09 12:23:23;;;;;;;1.92;1.30;;;17.30;99.90;;;;;;4974797;28;20632;-77
2022/10/09 12:25:50;;;;;;;2.80;1.00;;;17.40;99.90;;;;;;4968518;28;20736;-84
2022/10/09 12:28:44;;;;;;;2.40;1.10;;;17.30;99.90;;;;;;4961838;28;20324;-82
2022/10/09 12:31:26;;;;;;;7.85;1.20;;;17.40;99.90;;;;;;4969202;28;20213;-77
2022/10/09 12:33:57;;;;;;;3.13;1.17;;;17.40;99.90;;;;;;4966919;28;20660;-81
2022/10/09 12:36:29;;;;;;;1.25;1.00;;;17.40;99.90;;;;;;4962029;28;20177;-77
2022/10/09 12:38:55;;;;;;;4.93;1.08;;;17.40;99.90;;;;;;4968574;28;20652;-82
2022/10/09 12:41:33;;;;;;;3.58;1.05;;;17.50;99.90;;;;;;4978627;28;20286;-81
2022/10/09 12:43:59;;;;;;;3.67;1.35;;;17.40;99.90;;;;;;4969923;28;20659;-82
2022/10/09 12:46:37;;;;;;;2.78;1.10;;;17.40;99.90;;;;;;4968221;28;20174;-82
2022/10/09 12:49:13;;;;;;;2.53;1.92;;;17.40;99.90;;;;;;4969232;28;20228;-84
2022/10/09 12:51:38;;;;;;;5.22;1.40;;;17.40;99.90;;;;;;4962105;28;20289;-85
2022/10/09 12:54:09;;;;;;;1.52;1.10;;;17.40;99.90;;;;;;4970361;28;20601;-85
2022/10/09 12:56:37;;;;;;;2.38;1.10;;;17.40;99.90;;;;;;4965689;28;20220;-82
2022/10/09 12:59:04;;;;;;;3.85;1.30;;;17.50;99.90;;;;;;4964482;28;20206;-83
2022/10/09 13:01:31;;;;;;;4.57;0.95;;;17.60;99.90;;;;;;4964838;28;20209;-84
2022/10/09 13:04:02;;;;;;;2.03;1.02;;;17.70;99.90;;;;;;4962095;28;20224;-83
2022/10/09 13:06:52;;;;;;;5.32;1.20;;;17.80;99.90;;;;;;4965325;28;20265;-81
2022/10/09 13:09:48;;;;;;;6.30;1.10;;;17.80;99.90;;;;;;4963826;28;20741;-82